Time;durP1;ratioP1;P1;durP2;ratioP2;P2;SDS_P1;SDS_P2;PMS_P1;PMS_P2;Temp;Humidity;BMP_temperature;BMP_pressure;BME280_temperature;BME280_humidity;BME280_pressure;Samples;Min_cycle;Max_cycle;Signal;HPM_P1;HPM_P2
2021/08/14 00:02:11;;;;;;;11.70;5.30;;;;;;;;;;5075929;28;20441;-82
2021/08/14 00:04:38;;;;;;;13.43;5.70;;;;;;;;;;5074311;28;20538;-81
2021/08/14 00:07:05;;;;;;;10.40;6.00;;;;;;;;;;5071432;28;21043;-82
2021/08/14 00:09:34;;;;;;;18.10;5.97;;;;;;;;;;5073162;28;20484;-81
2021/08/14 00:12:01;;;;;;;14.70;6.03;;;;;;;;;;5073289;28;20506;-81
2021/08/14 00:14:30;;;;;;;14.33;6.90;;;;;;;;;;5073650;28;20841;-81
2021/08/14 00:16:57;;;;;;;13.97;5.53;;;;;;;;;;5072840;28;20491;-81
2021/08/14 00:19:24;;;;;;;10.20;5.20;;;;;;;;;;5072038;28;20503;-81
2021/08/14 00:21:51;;;;;;;16.93;5.77;;;;;;;;;;5072915;28;20451;-80
2021/08/14 00:24:18;;;;;;;9.87;5.57;;;;;;;;;;5073527;28;20534;-80
2021/08/14 00:26:45;;;;;;;9.33;5.63;;;;;;;;;;5073722;28;20795;-81
2021/08/14 00:29:13;;;;;;;17.50;5.90;;;;;;;;;;5073471;28;20454;-80
2021/08/14 00:31:41;;;;;;;7.30;5.60;;;;;;;;;;5073734;28;20441;-80
2021/08/14 00:34:08;;;;;;;14.33;5.43;;;;;;;;;;5073141;28;20440;-80
2021/08/14 00:36:36;;;;;;;10.20;5.03;;;;;;;;;;5072807;28;20490;-81
2021/08/14 00:39:03;;;;;;;9.90;5.63;;;;;;;;;;5072655;28;20451;-81
2021/08/14 00:41:31;;;;;;;12.23;5.20;;;;;;;;;;5073059;28;20454;-81
2021/08/14 00:44:01;;;;;;;8.23;5.10;;;;;;;;;;5073361;28;20441;-81
2021/08/14 00:46:28;;;;;;;14.27;6.13;;;;;;;;;;5073058;28;20527;-81
2021/08/14 00:48:57;;;;;;;10.77;6.93;;;;;;;;;;5073216;28;20444;-81
2021/08/14 00:51:24;;;;;;;9.50;5.03;;;;;;;;;;5072736;28;20482;-81
2021/08/14 00:53:51;;;;;;;8.27;5.30;;;;;;;;;;5073099;28;20533;-81
2021/08/14 00:56:21;;;;;;;6.57;4.80;;;;;;;;;;5072699;28;20444;-81
2021/08/14 00:58:49;;;;;;;7.10;5.37;;;;;;;;;;5072676;28;20441;-81
2021/08/14 01:01:17;;;;;;;10.10;5.63;;;;;;;;;;5073176;28;20446;-81
2021/08/14 01:03:45;;;;;;;7.77;5.60;;;;;;;;;;5073357;28;20449;-81
2021/08/14 01:06:14;;;;;;;12.67;6.13;;;;;;;;;;5072877;28;20946;-80
2021/08/14 01:08:42;;;;;;;12.33;5.33;;;;;;;;;;5071067;28;20541;-81
2021/08/14 01:11:10;;;;;;;8.73;5.47;;;;;;;;;;5072705;28;20466;-81
2021/08/14 01:13:38;;;;;;;10.20;6.27;;;;;;;;;;5073053;28;20440;-79
2021/08/14 01:16:06;;;;;;;8.90;5.87;;;;;;;;;;5073206;28;20449;-80
2021/08/14 01:18:33;;;;;;;12.47;5.47;;;;;;;;;;5074319;28;20472;-80
2021/08/14 01:21:00;;;;;;;8.83;5.40;;;;;;;;;;5076147;28;20452;-79
2021/08/14 01:23:29;;;;;;;9.40;6.43;;;;;;;;;;5076221;28;20447;-81
2021/08/14 01:26:03;;;;;;;12.50;6.10;;;;;;;;;;5076435;28;20939;-81
2021/08/14 01:28:32;;;;;;;9.10;5.43;;;;;;;;;;5076091;28;20444;-82
2021/08/14 01:31:00;;;;;;;19.90;7.37;;;;;;;;;;5076560;28;20567;-80
2021/08/14 01:33:27;;;;;;;15.30;6.30;;;;;;;;;;5076020;28;20968;-80
2021/08/14 01:35:55;;;;;;;11.17;6.60;;;;;;;;;;5076464;28;20451;-81
2021/08/14 01:38:22;;;;;;;10.60;6.60;;;;;;;;;;5074112;28;20448;-80
2021/08/14 01:40:50;;;;;;;10.53;6.40;;;;;;;;;;5076171;28;20779;-80
2021/08/14 01:43:17;;;;;;;10.60;5.67;;;;;;;;;;5076930;28;20453;-80
2021/08/14 01:45:45;;;;;;;17.70;8.33;;;;;;;;;;5076121;28;20441;-80
2021/08/14 01:48:12;;;;;;;11.33;6.30;;;;;;;;;;5076140;28;20460;-81
2021/08/14 01:50:40;;;;;;;11.70;6.40;;;;;;;;;;5075828;28;20476;-80
2021/08/14 01:53:07;;;;;;;13.37;6.00;;;;;;;;;;5076619;28;20451;-80
2021/08/14 01:55:34;;;;;;;10.60;6.90;;;;;;;;;;5076375;28;20441;-83
2021/08/14 01:58:01;;;;;;;12.47;6.53;;;;;;;;;;5076446;28;20451;-82
2021/08/14 02:00:28;;;;;;;15.57;6.70;;;;;;;;;;5076075;28;20448;-83
2021/08/14 02:02:58;;;;;;;12.93;7.30;;;;;;;;;;5075931;28;20472;-83
2021/08/14 02:05:25;;;;;;;10.73;5.83;;;;;;;;;;5075719;28;20475;-83
2021/08/14 02:07:52;;;;;;;8.90;6.47;;;;;;;;;;5074407;28;20449;-82
2021/08/14 02:10:20;;;;;;;8.60;6.33;;;;;;;;;;5075341;28;20480;-81
2021/08/14 02:12:47;;;;;;;11.77;6.77;;;;;;;;;;5075826;28;20433;-80
2021/08/14 02:15:14;;;;;;;12.33;7.60;;;;;;;;;;5075896;28;20448;-82
2021/08/14 02:17:41;;;;;;;10.30;6.90;;;;;;;;;;5075413;28;20473;-83
2021/08/14 02:20:10;;;;;;;14.40;8.20;;;;;;;;;;5075608;28;20442;-81
2021/08/14 02:22:37;;;;;;;14.43;7.30;;;;;;;;;;5075528;28;20444;-81
2021/08/14 02:25:05;;;;;;;11.00;7.20;;;;;;;;;;5075844;28;20445;-83
2021/08/14 02:27:32;;;;;;;18.50;7.33;;;;;;;;;;5075573;28;20931;-82
2021/08/14 02:29:59;;;;;;;14.03;8.00;;;;;;;;;;5074517;28;20445;-82
2021/08/14 02:32:27;;;;;;;12.77;7.20;;;;;;;;;;5075517;28;20523;-82
2021/08/14 02:34:54;;;;;;;11.70;8.10;;;;;;;;;;5074792;28;20528;-81
2021/08/14 02:37:22;;;;;;;12.80;7.50;;;;;;;;;;5075048;28;20447;-83
2021/08/14 02:39:50;;;;;;;11.00;7.40;;;;;;;;;;5073213;28;20449;-83
2021/08/14 02:42:17;;;;;;;10.17;7.97;;;;;;;;;;5074961;28;20437;-83
2021/08/14 02:44:44;;;;;;;12.70;7.50;;;;;;;;;;5075000;28;20448;-82
2021/08/14 02:47:11;;;;;;;12.90;8.10;;;;;;;;;;5074488;28;20445;-83
2021/08/14 02:49:38;;;;;;;17.13;8.60;;;;;;;;;;5074554;28;20451;-82
2021/08/14 02:52:06;;;;;;;9.43;7.60;;;;;;;;;;5074639;28;20476;-82
2021/08/14 02:54:34;;;;;;;16.93;8.60;;;;;;;;;;5075043;28;20455;-83
2021/08/14 02:57:01;;;;;;;18.57;9.13;;;;;;;;;;5074988;28;20441;-83
2021/08/14 02:59:29;;;;;;;25.80;9.37;;;;;;;;;;5074474;28;20453;-81
2021/08/14 03:01:56;;;;;;;13.13;8.50;;;;;;;;;;5074934;28;20449;-81
2021/08/14 03:04:23;;;;;;;22.80;8.93;;;;;;;;;;5075431;28;20441;-83
2021/08/14 03:06:56;;;;;;;13.50;8.57;;;;;;;;;;5074813;28;20480;-81
2021/08/14 03:09:23;;;;;;;17.33;9.00;;;;;;;;;;5073498;28;20444;-82
2021/08/14 03:11:52;;;;;;;15.77;8.67;;;;;;;;;;5074125;28;20482;-81
2021/08/14 03:14:19;;;;;;;19.80;8.60;;;;;;;;;;5074772;28;20448;-82
2021/08/14 03:16:46;;;;;;;14.60;8.30;;;;;;;;;;5074578;28;20447;-82
2021/08/14 03:19:13;;;;;;;18.40;9.57;;;;;;;;;;5073977;28;20567;-83
2021/08/14 03:21:40;;;;;;;14.53;8.63;;;;;;;;;;5074168;28;20458;-82
2021/08/14 03:24:07;;;;;;;17.60;9.30;;;;;;;;;;5073946;28;20527;-82
2021/08/14 03:26:35;;;;;;;14.77;9.97;;;;;;;;;;5074758;28;20442;-82
2021/08/14 03:29:03;;;;;;;16.83;9.97;;;;;;;;;;5073892;28;20449;-83
2021/08/14 03:31:30;;;;;;;19.40;9.63;;;;;;;;;;5074019;28;20483;-83
2021/08/14 03:33:58;;;;;;;15.13;9.30;;;;;;;;;;5074034;28;20945;-83
2021/08/14 03:36:26;;;;;;;17.13;9.50;;;;;;;;;;5073729;28;20432;-84
2021/08/14 03:38:53;;;;;;;14.40;9.70;;;;;;;;;;5074249;28;20433;-84
2021/08/14 03:41:20;;;;;;;20.10;9.77;;;;;;;;;;5071483;28;20454;-83
2021/08/14 03:43:47;;;;;;;16.00;9.90;;;;;;;;;;5074614;28;20437;-83
2021/08/14 03:46:16;;;;;;;14.30;9.70;;;;;;;;;;5073937;28;20440;-83
2021/08/14 03:48:43;;;;;;;19.30;10.13;;;;;;;;;;5073522;28;20441;-83
2021/08/14 03:51:10;;;;;;;19.20;10.50;;;;;;;;;;5073464;28;20480;-82
2021/08/14 03:53:37;;;;;;;16.50;9.60;;;;;;;;;;5073762;28;20531;-82
2021/08/14 03:56:04;;;;;;;17.47;10.73;;;;;;;;;;5073882;28;20447;-82
2021/08/14 03:58:33;;;;;;;15.57;10.97;;;;;;;;;;5073354;28;21004;-82
2021/08/14 04:01:00;;;;;;;15.97;10.13;;;;;;;;;;5073349;28;20443;-82
2021/08/14 04:03:29;;;;;;;15.70;10.20;;;;;;;;;;5074829;28;20457;-82
2021/08/14 04:05:57;;;;;;;15.03;10.77;;;;;;;;;;5073794;28;20470;-83
2021/08/14 04:08:24;;;;;;;12.43;11.00;;;;;;;;;;5072625;28;20445;-82
2021/08/14 04:10:52;;;;;;;17.67;10.30;;;;;;;;;;5073332;28;20472;-80
2021/08/14 04:13:19;;;;;;;17.57;10.57;;;;;;;;;;5074005;28;20921;-83
2021/08/14 04:15:46;;;;;;;16.93;9.93;;;;;;;;;;5073747;28;20942;-83
2021/08/14 04:18:13;;;;;;;14.97;10.37;;;;;;;;;;5073179;28;20479;-82
2021/08/14 04:20:42;;;;;;;16.60;10.13;;;;;;;;;;5073651;28;20531;-82
2021/08/14 04:23:09;;;;;;;17.97;10.37;;;;;;;;;;5072721;28;20476;-76
2021/08/14 04:25:36;;;;;;;16.53;10.70;;;;;;;;;;5073594;28;20491;-76
2021/08/14 04:28:03;;;;;;;15.17;9.50;;;;;;;;;;5073016;28;20459;-77
2021/08/14 04:30:31;;;;;;;16.43;9.33;;;;;;;;;;5071815;28;20451;-75
2021/08/14 04:32:58;;;;;;;17.60;10.37;;;;;;;;;;5073213;28;20447;-77
2021/08/14 04:35:25;;;;;;;13.37;8.50;;;;;;;;;;5072504;28;20443;-76
2021/08/14 04:37:53;;;;;;;14.37;9.80;;;;;;;;;;5073204;28;20444;-76
2021/08/14 04:40:21;;;;;;;12.57;9.30;;;;;;;;;;5071552;28;20449;-76
2021/08/14 04:42:48;;;;;;;17.20;9.60;;;;;;;;;;5073019;28;20445;-76
2021/08/14 04:45:16;;;;;;;18.00;10.13;;;;;;;;;;5073321;28;20443;-77
2021/08/14 04:47:43;;;;;;;22.10;10.90;;;;;;;;;;5073132;28;20444;-76
2021/08/14 04:50:11;;;;;;;14.67;10.43;;;;;;;;;;5073088;28;20442;-76
2021/08/14 04:52:38;;;;;;;18.03;9.83;;;;;;;;;;5075754;28;20494;-77
2021/08/14 04:55:07;;;;;;;16.87;10.53;;;;;;;;;;5077321;28;20440;-76
2021/08/14 04:57:34;;;;;;;17.47;12.80;;;;;;;;;;5077553;28;20442;-76
2021/08/14 05:00:01;;;;;;;14.50;10.10;;;;;;;;;;5076713;28;20447;-77
2021/08/14 05:02:30;;;;;;;23.10;10.23;;;;;;;;;;5077196;28;20448;-77
2021/08/14 05:04:57;;;;;;;23.47;11.63;;;;;;;;;;5077053;28;20436;-76
2021/08/14 05:07:24;;;;;;;24.03;10.50;;;;;;;;;;5077126;28;20437;-77
2021/08/14 05:09:52;;;;;;;18.17;10.63;;;;;;;;;;5074824;28;20445;-76
2021/08/14 05:12:21;;;;;;;12.10;10.80;;;;;;;;;;5075841;28;21048;-76
2021/08/14 05:14:48;;;;;;;15.40;10.27;;;;;;;;;;5076563;28;20436;-76
2021/08/14 05:17:16;;;;;;;19.10;11.03;;;;;;;;;;5075923;28;20704;-76
2021/08/14 05:19:43;;;;;;;17.83;11.20;;;;;;;;;;5076048;28;20444;-76
2021/08/14 05:22:10;;;;;;;14.60;11.47;;;;;;;;;;5076296;28;20445;-77
2021/08/14 05:24:37;;;;;;;14.83;11.50;;;;;;;;;;5075729;28;20451;-79
2021/08/14 05:27:04;;;;;;;21.30;12.70;;;;;;;;;;5076312;28;20917;-77
2021/08/14 05:29:33;;;;;;;21.10;11.27;;;;;;;;;;5076275;28;20441;-79
2021/08/14 05:32:00;;;;;;;17.63;11.13;;;;;;;;;;5075952;28;20481;-78
2021/08/14 05:34:27;;;;;;;18.27;11.83;;;;;;;;;;5076459;28;20444;-76
2021/08/14 05:36:55;;;;;;;24.03;12.00;;;;;;;;;;5076361;28;20449;-75
2021/08/14 05:39:22;;;;;;;13.50;10.70;;;;;;;;;;5075284;28;20444;-76
2021/08/14 05:41:52;;;;;;;14.00;11.17;;;;;;;;;;5075784;28;20440;-76
2021/08/14 05:44:19;;;;;;;16.20;12.00;;;;;;;;;;5075878;28;20518;-76
2021/08/14 05:46:48;;;;;;;19.43;11.40;;;;;;;;;;5076282;28;20448;-76
2021/08/14 05:49:15;;;;;;;18.27;11.43;;;;;;;;;;5075379;28;20459;-76
2021/08/14 05:51:42;;;;;;;19.70;11.93;;;;;;;;;;5075280;28;20472;-76
2021/08/14 05:54:09;;;;;;;14.57;11.33;;;;;;;;;;5075710;28;20556;-76
2021/08/14 05:56:36;;;;;;;19.67;10.60;;;;;;;;;;5076650;28;20440;-77
2021/08/14 05:59:03;;;;;;;13.87;9.77;;;;;;;;;;5075713;28;20527;-77
2021/08/14 06:01:31;;;;;;;19.40;11.00;;;;;;;;;;5075580;28;20448;-77
2021/08/14 06:03:59;;;;;;;22.33;10.73;;;;;;;;;;5075221;28;20845;-77
2021/08/14 06:06:26;;;;;;;19.23;11.90;;;;;;;;;;5075681;28;20451;-78
2021/08/14 06:08:54;;;;;;;18.47;11.00;;;;;;;;;;5075725;28;20441;-78
2021/08/14 06:11:21;;;;;;;11.50;9.73;;;;;;;;;;5074004;28;20476;-78
2021/08/14 06:13:48;;;;;;;18.53;10.90;;;;;;;;;;5074775;28;20437;-77
2021/08/14 06:16:15;;;;;;;15.77;10.87;;;;;;;;;;5074423;28;20960;-77
2021/08/14 06:18:43;;;;;;;19.83;10.70;;;;;;;;;;5074876;28;20529;-78
2021/08/14 06:21:11;;;;;;;19.20;11.43;;;;;;;;;;5075950;28;20441;-78
2021/08/14 06:23:39;;;;;;;16.93;10.80;;;;;;;;;;5075026;28;20445;-78
2021/08/14 06:26:06;;;;;;;19.03;11.53;;;;;;;;;;5075010;28;20445;-78
2021/08/14 06:28:33;;;;;;;19.20;10.97;;;;;;;;;;5075883;28;20520;-78
2021/08/14 06:31:00;;;;;;;16.30;10.83;;;;;;;;;;5075254;28;20449;-76
2021/08/14 06:33:28;;;;;;;19.10;11.13;;;;;;;;;;5075133;28;21012;-79
2021/08/14 06:35:55;;;;;;;18.77;11.47;;;;;;;;;;5075153;28;20445;-78
2021/08/14 06:38:23;;;;;;;14.13;9.43;;;;;;;;;;5074811;28;20926;-76
2021/08/14 06:40:51;;;;;;;18.63;10.97;;;;;;;;;;5073589;28;20436;-78
2021/08/14 06:43:18;;;;;;;15.73;10.77;;;;;;;;;;5074986;28;20456;-79
2021/08/14 06:45:45;;;;;;;11.57;9.87;;;;;;;;;;5074960;28;20484;-79
2021/08/14 06:48:12;;;;;;;27.93;12.37;;;;;;;;;;5075045;28;21037;-79
2021/08/14 06:50:39;;;;;;;16.00;11.00;;;;;;;;;;5074931;28;20940;-79
2021/08/14 06:53:07;;;;;;;21.30;11.40;;;;;;;;;;5074937;28;20469;-78
2021/08/14 06:55:35;;;;;;;21.53;11.80;;;;;;;;;;5075039;28;20475;-79
2021/08/14 06:58:02;;;;;;;18.00;11.77;;;;;;;;;;5074693;28;20932;-80
2021/08/14 07:00:29;;;;;;;17.43;12.13;;;;;;;;;;5074911;28;20433;-79
2021/08/14 07:02:57;;;;;;;17.73;12.47;;;;;;;;;;5074078;28;20514;-79
2021/08/14 07:05:24;;;;;;;16.80;11.87;;;;;;;;;;5074536;28;20446;-79
2021/08/14 07:07:51;;;;;;;18.23;11.80;;;;;;;;;;5074850;28;20437;-81
2021/08/14 07:10:18;;;;;;;17.00;12.73;;;;;;;;;;5074346;28;21022;-79
2021/08/14 07:12:47;;;;;;;21.80;12.10;;;;;;;;;;5071933;28;20569;-79
2021/08/14 07:15:14;;;;;;;20.10;12.60;;;;;;;;;;5074031;28;20442;-79
2021/08/14 07:17:41;;;;;;;19.17;13.30;;;;;;;;;;5074116;28;20526;-79
2021/08/14 07:20:09;;;;;;;19.53;13.60;;;;;;;;;;5074139;28;20460;-80
2021/08/14 07:22:36;;;;;;;20.83;13.30;;;;;;;;;;5074644;28;20446;-80
2021/08/14 07:25:04;;;;;;;19.30;13.40;;;;;;;;;;5073827;28;20452;-79
2021/08/14 07:27:31;;;;;;;21.67;13.70;;;;;;;;;;5074054;28;20441;-79
2021/08/14 07:29:59;;;;;;;18.03;11.40;;;;;;;;;;5074665;28;20464;-79
2021/08/14 07:32:27;;;;;;;25.00;12.83;;;;;;;;;;5074220;28;20483;-79
2021/08/14 07:34:54;;;;;;;19.03;12.47;;;;;;;;;;5074387;28;20448;-80
2021/08/14 07:37:22;;;;;;;18.03;10.97;;;;;;;;;;5074244;28;20805;-77
2021/08/14 07:39:49;;;;;;;20.10;12.87;;;;;;;;;;5073852;28;20919;-79
2021/08/14 07:42:16;;;;;;;17.07;12.03;;;;;;;;;;5072247;28;20459;-80
2021/08/14 07:44:43;;;;;;;18.20;12.00;;;;;;;;;;5073643;28;20450;-79
2021/08/14 07:47:12;;;;;;;22.30;11.80;;;;;;;;;;5073905;28;20449;-79
2021/08/14 07:49:39;;;;;;;21.67;10.37;;;;;;;;;;5073424;28;20958;-78
2021/08/14 07:52:08;;;;;;;14.90;10.60;;;;;;;;;;5073670;28;20477;-78
2021/08/14 07:54:35;;;;;;;15.17;9.70;;;;;;;;;;5073136;28;20474;-81
2021/08/14 07:57:02;;;;;;;20.00;11.03;;;;;;;;;;5073963;28;20442;-78
2021/08/14 07:59:29;;;;;;;18.53;9.70;;;;;;;;;;5073889;28;20441;-79
2021/08/14 08:01:57;;;;;;;15.57;10.33;;;;;;;;;;5073402;28;20456;-80
2021/08/14 08:04:25;;;;;;;11.40;7.87;;;;;;;;;;5073586;28;20448;-77
2021/08/14 08:06:52;;;;;;;12.23;8.43;;;;;;;;;;5073646;28;20474;-77
2021/08/14 08:09:19;;;;;;;13.53;8.77;;;;;;;;;;5073894;28;20477;-76
2021/08/14 08:11:47;;;;;;;18.90;8.97;;;;;;;;;;5073920;28;20448;-75
2021/08/14 08:14:14;;;;;;;13.13;8.80;;;;;;;;;;5069814;28;20454;-78
2021/08/14 08:16:41;;;;;;;10.20;6.53;;;;;;;;;;5073497;28;20442;-80
2021/08/14 08:19:08;;;;;;;14.23;6.13;;;;;;;;;;5072924;28;20498;-80
2021/08/14 08:21:37;;;;;;;13.97;6.33;;;;;;;;;;5073222;28;20440;-75
2021/08/14 08:24:05;;;;;;;15.80;6.20;;;;;;;;;;5072608;28;20475;-68
2021/08/14 08:26:32;;;;;;;9.17;5.03;;;;;;;;;;5072917;28;20450;-77
2021/08/14 08:29:00;;;;;;;7.60;4.53;;;;;;;;;;5073680;28;20478;-73
2021/08/14 08:31:29;;;;;;;9.13;4.90;;;;;;;;;;5073059;28;20457;-74
2021/08/14 08:33:56;;;;;;;6.77;3.87;;;;;;;;;;5073658;28;20515;-67
2021/08/14 08:36:23;;;;;;;6.37;4.43;;;;;;;;;;5073351;28;20529;-71
2021/08/14 08:38:52;;;;;;;9.60;4.20;;;;;;;;;;5073096;28;20441;-71
2021/08/14 08:41:19;;;;;;;6.93;4.30;;;;;;;;;;5073004;28;20449;-78
2021/08/14 08:43:46;;;;;;;11.57;4.10;;;;;;;;;;5072062;28;21043;-82
2021/08/14 08:46:14;;;;;;;10.07;4.33;;;;;;;;;;5075527;28;20447;-79
2021/08/14 08:48:44;;;;;;;13.93;5.63;;;;;;;;;;5074006;28;20453;-81
2021/08/14 08:51:11;;;;;;;8.43;3.80;;;;;;;;;;5073298;28;20431;-78
2021/08/14 08:53:39;;;;;;;7.53;3.87;;;;;;;;;;5072828;28;20474;-80
2021/08/14 08:56:07;;;;;;;9.47;3.30;;;;;;;;;;5073452;28;20450;-80
2021/08/14 08:58:36;;;;;;;6.30;3.97;;;;;;;;;;5073976;28;20805;-82
2021/08/14 09:01:03;;;;;;;7.40;4.07;;;;;;;;;;5074218;28;20933;-82
2021/08/14 09:03:32;;;;;;;5.77;3.43;;;;;;;;;;5073434;28;20446;-80
2021/08/14 09:06:00;;;;;;;5.83;3.00;;;;;;;;;;5073012;28;20441;-80
2021/08/14 09:08:27;;;;;;;5.97;3.40;;;;;;;;;;5073650;28;20451;-79
2021/08/14 09:11:09;;;;;;;7.60;3.20;;;;;;;;;;5073034;28;20541;-78
2021/08/14 09:13:36;;;;;;;7.07;3.20;;;;;;;;;;5073726;28;20539;-80
2021/08/14 09:16:19;;;;;;;6.97;3.27;;;;;;;;;;5071358;28;20805;-80
2021/08/14 09:18:53;;;;;;;7.10;3.23;;;;;;;;;;5073254;28;20477;-82
2021/08/14 09:21:29;;;;;;;6.90;3.70;;;;;;;;;;5073358;28;20451;-78
2021/08/14 09:23:57;;;;;;;9.63;3.87;;;;;;;;;;5073016;28;20439;-82
2021/08/14 09:26:25;;;;;;;7.17;3.37;;;;;;;;;;5073133;28;20539;-80
2021/08/14 09:29:03;;;;;;;5.20;2.90;;;;;;;;;;5072748;28;20444;-80
2021/08/14 09:31:46;;;;;;;7.43;3.10;;;;;;;;;;5073370;28;20438;-81
2021/08/14 09:34:17;;;;;;;5.97;2.77;;;;;;;;;;5073200;28;20470;-81
2021/08/14 09:36:44;;;;;;;9.20;3.20;;;;;;;;;;5073341;28;20809;-79
2021/08/14 09:39:11;;;;;;;7.70;3.47;;;;;;;;;;5074871;28;20443;-80
2021/08/14 09:41:41;;;;;;;7.23;3.03;;;;;;;;;;5076301;28;20435;-80
2021/08/14 09:44:15;;;;;;;8.77;3.33;;;;;;;;;;5075904;28;20448;-80
2021/08/14 09:46:43;;;;;;;5.90;3.37;;;;;;;;;;5074741;28;20443;-80
2021/08/14 09:49:10;;;;;;;12.47;3.80;;;;;;;;;;5076180;28;20458;-79
2021/08/14 09:51:38;;;;;;;6.57;3.20;;;;;;;;;;5075920;28;20542;-78
2021/08/14 09:54:06;;;;;;;4.70;2.67;;;;;;;;;;5075505;28;20491;-79
2021/08/14 09:56:35;;;;;;;4.93;2.73;;;;;;;;;;5075605;28;20945;-79
2021/08/14 09:59:04;;;;;;;6.00;2.70;;;;;;;;;;5075812;28;20954;-80
2021/08/14 10:01:33;;;;;;;8.07;3.27;;;;;;;;;;5076232;28;20791;-76
2021/08/14 10:04:00;;;;;;;4.20;3.20;;;;;;;;;;5075479;28;20454;-77
2021/08/14 10:06:28;;;;;;;5.90;3.27;;;;;;;;;;5075686;28;20526;-82
2021/08/14 10:08:56;;;;;;;4.27;2.77;;;;;;;;;;5075860;28;20447;-77
2021/08/14 10:11:23;;;;;;;6.80;3.20;;;;;;;;;;5076253;28;20810;-79
2021/08/14 10:13:51;;;;;;;5.63;3.00;;;;;;;;;;5075975;28;20479;-80
2021/08/14 10:16:20;;;;;;;4.60;2.57;;;;;;;;;;5073150;28;20996;-77
2021/08/14 10:18:47;;;;;;;6.70;2.80;;;;;;;;;;5075530;28;20482;-78
2021/08/14 10:21:15;;;;;;;5.57;3.03;;;;;;;;;;5075788;28;20447;-78
2021/08/14 10:23:43;;;;;;;5.90;3.07;;;;;;;;;;5075693;28;20474;-76
2021/08/14 10:26:14;;;;;;;5.70;3.43;;;;;;;;;;5075095;28;20933;-78
2021/08/14 10:28:45;;;;;;;4.73;3.70;;;;;;;;;;5075446;28;20518;-77
2021/08/14 10:31:27;;;;;;;6.40;3.57;;;;;;;;;;5075788;28;20794;-76
2021/08/14 10:33:56;;;;;;;5.63;2.93;;;;;;;;;;5075044;28;20486;-76
2021/08/14 10:36:43;;;;;;;4.33;2.90;;;;;;;;;;5075590;28;20483;-77
2021/08/14 10:39:18;;;;;;;5.00;2.77;;;;;;;;;;5075525;28;20779;-78
2021/08/14 10:41:49;;;;;;;9.80;3.50;;;;;;;;;;5074989;28;20454;-79
2021/08/14 10:44:17;;;;;;;4.37;2.27;;;;;;;;;;5075615;28;20429;-78
2021/08/14 10:46:51;;;;;;;5.03;2.50;;;;;;;;;;5072869;28;20440;-76
2021/08/14 10:49:38;;;;;;;6.37;3.07;;;;;;;;;;5074902;28;20448;-76
2021/08/14 10:52:15;;;;;;;5.90;3.30;;;;;;;;;;5074966;28;21028;-76
2021/08/14 10:55:01;;;;;;;4.90;3.10;;;;;;;;;;5074476;28;20511;-78
2021/08/14 10:57:37;;;;;;;4.90;2.80;;;;;;;;;;5075021;28;20524;-81
2021/08/14 11:00:05;;;;;;;7.63;2.90;;;;;;;;;;5075667;28;20507;-79
2021/08/14 11:02:33;;;;;;;4.27;2.93;;;;;;;;;;5075354;28;20527;-80
2021/08/14 11:05:04;;;;;;;5.37;3.33;;;;;;;;;;5074689;28;20917;-79
2021/08/14 11:07:32;;;;;;;4.77;2.77;;;;;;;;;;5075835;28;20432;-81
2021/08/14 11:10:12;;;;;;;5.93;3.33;;;;;;;;;;5075691;28;20803;-80
2021/08/14 11:12:43;;;;;;;3.70;2.77;;;;;;;;;;5075123;28;20432;-81
2021/08/14 11:15:17;;;;;;;5.80;3.17;;;;;;;;;;5076226;28;20432;-81
2021/08/14 11:17:45;;;;;;;4.90;2.80;;;;;;;;;;5075166;28;20483;-80
2021/08/14 11:20:31;;;;;;;5.40;3.13;;;;;;;;;;5076158;28;20440;-83
2021/08/14 11:23:00;;;;;;;7.70;2.90;;;;;;;;;;5075199;28;20540;-82
2021/08/14 11:25:28;;;;;;;5.00;3.20;;;;;;;;;;5075218;28;20436;-82
2021/08/14 11:27:56;;;;;;;7.10;3.10;;;;;;;;;;5075218;28;20445;-81
2021/08/14 11:30:24;;;;;;;3.20;2.90;;;;;;;;;;5075290;28;20790;-80
2021/08/14 11:32:52;;;;;;;5.07;2.83;;;;;;;;;;5074547;28;20432;-80
2021/08/14 11:35:20;;;;;;;6.30;2.60;;;;;;;;;;5074752;28;20440;-79
2021/08/14 11:37:54;;;;;;;5.23;3.00;;;;;;;;;;5074191;28;20535;-82
2021/08/14 11:40:24;;;;;;;8.30;2.70;;;;;;;;;;5075010;28;20479;-81
2021/08/14 11:42:55;;;;;;;4.43;2.57;;;;;;;;;;5074050;28;20526;-78
2021/08/14 11:45:22;;;;;;;8.33;3.10;;;;;;;;;;5074432;28;20461;-80
2021/08/14 11:47:56;;;;;;;4.30;2.80;;;;;;;;;;5072668;28;20450;-81
2021/08/14 11:50:23;;;;;;;3.87;3.53;;;;;;;;;;5074012;28;20528;-82
2021/08/14 11:52:50;;;;;;;4.77;2.80;;;;;;;;;;5074068;28;20470;-78
2021/08/14 11:55:18;;;;;;;6.17;3.13;;;;;;;;;;5073276;28;20464;-78
2021/08/14 11:57:46;;;;;;;5.60;3.30;;;;;;;;;;5073880;28;20776;-78
2021/08/14 12:00:24;;;;;;;5.40;3.07;;;;;;;;;;5073537;28;20930;-79
2021/08/14 12:03:04;;;;;;;3.90;2.70;;;;;;;;;;5073108;28;20438;-81
2021/08/14 12:05:31;;;;;;;4.57;3.00;;;;;;;;;;5074107;28;20441;-80
2021/08/14 12:07:58;;;;;;;5.50;2.90;;;;;;;;;;5073694;28;20440;-80
2021/08/14 12:10:26;;;;;;;7.10;3.30;;;;;;;;;;5071718;28;20450;-80
2021/08/14 12:12:58;;;;;;;5.90;3.13;;;;;;;;;;5073742;28;20473;-77
2021/08/14 12:15:35;;;;;;;6.00;2.80;;;;;;;;;;5073446;28;20798;-78
2021/08/14 12:18:02;;;;;;;4.77;2.50;;;;;;;;;;5073493;28;20474;-76
2021/08/14 12:20:30;;;;;;;4.10;3.00;;;;;;;;;;5072381;28;20521;-79
2021/08/14 12:23:13;;;;;;;4.17;2.60;;;;;;;;;;5072061;28;20460;-78
2021/08/14 12:25:49;;;;;;;5.33;3.10;;;;;;;;;;5073067;28;20951;-78
2021/08/14 12:28:18;;;;;;;3.73;2.87;;;;;;;;;;5073199;28;20424;-78
2021/08/14 12:30:46;;;;;;;3.57;2.27;;;;;;;;;;5073391;28;20478;-79
2021/08/14 12:33:24;;;;;;;4.43;2.60;;;;;;;;;;5073544;28;20444;-77
2021/08/14 12:35:58;;;;;;;7.00;3.40;;;;;;;;;;5073203;28;20452;-80
2021/08/14 12:38:25;;;;;;;6.73;2.80;;;;;;;;;;5073870;28;20448;-78
2021/08/14 12:40:53;;;;;;;10.40;2.77;;;;;;;;;;5071504;28;20448;-76
2021/08/14 12:43:22;;;;;;;7.37;3.10;;;;;;;;;;5074032;28;20443;-76
2021/08/14 12:45:50;;;;;;;3.80;2.93;;;;;;;;;;5073541;28;20447;-78
2021/08/14 12:48:17;;;;;;;5.30;3.60;;;;;;;;;;5072759;28;20458;-78
2021/08/14 12:50:45;;;;;;;5.67;2.40;;;;;;;;;;5072513;28;20524;-74
2021/08/14 12:53:13;;;;;;;5.20;3.10;;;;;;;;;;5072823;28;20439;-79
2021/08/14 12:55:41;;;;;;;5.10;2.77;;;;;;;;;;5072887;28;20434;-76
2021/08/14 12:58:09;;;;;;;4.80;3.10;;;;;;;;;;5073216;28;20446;-78
2021/08/14 13:00:38;;;;;;;6.33;2.37;;;;;;;;;;5072795;28;20445;-79
2021/08/14 13:03:06;;;;;;;7.47;2.80;;;;;;;;;;5073510;28;20441;-78
2021/08/14 13:05:33;;;;;;;6.23;3.27;;;;;;;;;;5072853;28;20447;-76
2021/08/14 13:08:00;;;;;;;6.17;2.70;;;;;;;;;;5072838;28;20447;-78
2021/08/14 13:10:28;;;;;;;9.63;3.13;;;;;;;;;;5069358;28;20438;-78
2021/08/14 13:12:56;;;;;;;6.67;3.03;;;;;;;;;;5073934;28;20442;-78
2021/08/14 13:15:23;;;;;;;5.60;2.90;;;;;;;;;;5076531;28;20995;-79
2021/08/14 13:17:52;;;;;;;3.57;2.90;;;;;;;;;;5076257;28;20565;-78
2021/08/14 13:20:20;;;;;;;13.30;3.53;;;;;;;;;;5076289;28;20451;-76
2021/08/14 13:22:49;;;;;;;6.10;2.97;;;;;;;;;;5076517;28;20440;-69
2021/08/14 13:25:17;;;;;;;7.13;2.97;;;;;;;;;;5076494;28;20848;-74
2021/08/14 13:27:45;;;;;;;5.23;3.37;;;;;;;;;;5076338;28;20467;-75
2021/08/14 13:30:14;;;;;;;11.20;3.10;;;;;;;;;;5076364;28;20451;-78
2021/08/14 13:32:41;;;;;;;5.03;2.87;;;;;;;;;;5076662;28;20477;-77
2021/08/14 13:35:10;;;;;;;5.03;2.80;;;;;;;;;;5076592;28;20523;-77
2021/08/14 13:37:37;;;;;;;8.80;3.93;;;;;;;;;;5076437;28;20797;-78
2021/08/14 13:40:05;;;;;;;5.80;3.17;;;;;;;;;;5076102;28;20444;-75
2021/08/14 13:42:33;;;;;;;8.03;3.60;;;;;;;;;;5074784;28;20441;-79
2021/08/14 13:45:01;;;;;;;6.53;3.33;;;;;;;;;;5076357;28;20473;-79
2021/08/14 13:47:28;;;;;;;3.77;3.23;;;;;;;;;;5075923;28;20464;-78
2021/08/14 13:49:55;;;;;;;7.40;3.40;;;;;;;;;;5076027;28;20438;-77
2021/08/14 13:52:24;;;;;;;4.10;2.47;;;;;;;;;;5075064;28;20445;-78
2021/08/14 13:54:51;;;;;;;5.33;3.33;;;;;;;;;;5075863;28;20483;-78
2021/08/14 13:57:18;;;;;;;5.50;3.00;;;;;;;;;;5076305;28;20813;-78
2021/08/14 13:59:45;;;;;;;9.60;5.60;;;;;;;;;;5075839;28;20466;-79
2021/08/14 14:02:12;;;;;;;4.60;2.90;;;;;;;;;;5075632;28;20482;-78
2021/08/14 14:04:40;;;;;;;5.67;3.33;;;;;;;;;;5076119;28;20456;-75
2021/08/14 14:07:07;;;;;;;5.97;3.20;;;;;;;;;;5075913;28;20446;-78
2021/08/14 14:09:36;;;;;;;5.77;3.07;;;;;;;;;;5075661;28;20932;-77
2021/08/14 14:12:03;;;;;;;11.50;3.53;;;;;;;;;;5073359;28;20994;-78
2021/08/14 14:14:31;;;;;;;4.40;2.80;;;;;;;;;;5075457;28;20476;-77
2021/08/14 14:16:58;;;;;;;7.60;3.87;;;;;;;;;;5075795;28;20442;-76
2021/08/14 14:19:25;;;;;;;6.00;3.87;;;;;;;;;;5075069;28;20486;-77
2021/08/14 14:21:53;;;;;;;9.40;3.30;;;;;;;;;;5075282;28;20442;-80
2021/08/14 14:24:20;;;;;;;4.60;2.93;;;;;;;;;;5074019;28;20457;-81
2021/08/14 14:26:48;;;;;;;4.80;2.83;;;;;;;;;;5075711;28;20443;-79
2021/08/14 14:29:16;;;;;;;10.03;4.57;;;;;;;;;;5075466;28;20440;-79
2021/08/14 14:31:43;;;;;;;5.10;3.50;;;;;;;;;;5075354;28;20927;-77
2021/08/14 14:34:10;;;;;;;5.63;3.60;;;;;;;;;;5075435;28;20473;-77
2021/08/14 14:36:37;;;;;;;7.33;3.57;;;;;;;;;;5075263;28;20449;-77
2021/08/14 14:39:05;;;;;;;6.13;3.97;;;;;;;;;;5075436;28;20482;-76
2021/08/14 14:41:32;;;;;;;5.17;3.30;;;;;;;;;;5073567;28;20450;-76